createdAt,value
2022-10-23T00:01:28.452Z,12.15
2022-10-23T00:04:01.459Z,12.14
2022-10-23T00:06:29.539Z,12.13
2022-10-23T00:08:56.428Z,12.11
2022-10-23T00:11:28.855Z,12.10
2022-10-23T00:13:57.922Z,12.09
2022-10-23T00:16:24.412Z,12.07
2022-10-23T00:18:50.949Z,12.05
2022-10-23T00:21:17.959Z,12.03
2022-10-23T00:23:44.881Z,12.00
2022-10-23T00:26:15.739Z,11.95
2022-10-23T00:28:44.051Z,11.89
2022-10-23T00:31:11.379Z,11.89
2022-10-23T00:33:38.271Z,11.88
2022-10-23T00:36:07.017Z,11.87
2022-10-23T00:38:33.898Z,11.85
2022-10-23T00:41:00.854Z,11.86
2022-10-23T00:43:30.664Z,11.85
2022-10-23T00:45:58.408Z,11.86
2022-10-23T00:48:27.480Z,11.83
2022-10-23T00:50:55.756Z,11.80
2022-10-23T00:53:23.031Z,11.78
2022-10-23T00:55:53.148Z,11.75
2022-10-23T00:58:21.471Z,11.76
2022-10-23T01:00:49.801Z,11.77
2022-10-23T01:03:19.202Z,11.75
2022-10-23T01:06:03.393Z,11.74
2022-10-23T01:08:42.960Z,11.75
2022-10-23T01:11:17.999Z,11.75
2022-10-23T01:14:10.707Z,11.78
2022-10-23T01:16:41.536Z,11.78
2022-10-23T01:19:26.372Z,11.78
2022-10-23T01:22:13.342Z,11.80
2022-10-23T01:24:51.121Z,11.81
2022-10-23T01:27:32.789Z,11.81
2022-10-23T01:30:05.913Z,11.80
2022-10-23T01:32:43.565Z,11.81
2022-10-23T01:35:15.190Z,11.81
2022-10-23T01:38:01.091Z,11.81
2022-10-23T01:40:37.557Z,11.82
2022-10-23T01:43:08.927Z,11.82
2022-10-23T01:45:42.657Z,11.83
2022-10-23T01:48:13.778Z,11.83
2022-10-23T01:50:42.787Z,11.83
2022-10-23T01:53:09.869Z,11.82
2022-10-23T01:55:39.335Z,11.82
2022-10-23T01:58:08.594Z,11.82
2022-10-23T02:00:38.648Z,11.81
2022-10-23T02:03:08.691Z,11.80
2022-10-23T02:05:35.809Z,11.80
2022-10-23T02:08:03.027Z,11.78
2022-10-23T02:11:04.459Z,11.78
2022-10-23T02:13:45.258Z,11.78
2022-10-23T02:16:24.061Z,11.77
2022-10-23T02:19:05.899Z,11.76
2022-10-23T02:21:38.731Z,11.74
2022-10-23T02:24:14.348Z,11.73
2022-10-23T02:26:49.463Z,11.73
2022-10-23T02:29:28.226Z,11.70
2022-10-23T02:31:54.748Z,11.70
2022-10-23T02:34:21.398Z,11.68
2022-10-23T02:36:48.172Z,11.67
2022-10-23T02:39:14.931Z,11.65
2022-10-23T02:41:47.127Z,11.66
2022-10-23T02:44:39.361Z,11.63
2022-10-23T02:47:33.929Z,11.65
2022-10-23T02:50:22.215Z,11.62
2022-10-23T02:53:01.740Z,11.63
2022-10-23T02:55:53.108Z,11.60
2022-10-23T02:58:54.939Z,11.61
2022-10-23T03:01:26.434Z,11.61
2022-10-23T03:03:57.083Z,11.61
2022-10-23T03:06:24.586Z,11.61
2022-10-23T03:09:09.743Z,11.61
2022-10-23T03:11:36.763Z,11.61
2022-10-23T03:14:03.523Z,11.59
2022-10-23T03:16:30.780Z,11.60
2022-10-23T03:18:57.495Z,11.60
2022-10-23T03:21:24.409Z,11.60
2022-10-23T03:23:51.115Z,11.60
2022-10-23T03:26:17.805Z,11.59
2022-10-23T03:28:44.412Z,11.60
2022-10-23T03:31:11.187Z,11.58
2022-10-23T03:33:37.784Z,11.58
2022-10-23T03:36:04.765Z,11.60
2022-10-23T03:38:31.920Z,11.59
2022-10-23T03:40:58.439Z,11.60
2022-10-23T03:43:25.094Z,11.59
2022-10-23T03:45:52.186Z,11.59
2022-10-23T03:48:18.729Z,11.59
2022-10-23T03:50:45.174Z,11.61
2022-10-23T03:53:11.682Z,11.59
2022-10-23T03:55:38.138Z,11.60
2022-10-23T03:58:04.628Z,11.58
2022-10-23T04:00:31.360Z,11.58
2022-10-23T04:02:58.093Z,11.57
2022-10-23T04:05:24.923Z,11.57
2022-10-23T04:07:51.516Z,11.56
2022-10-23T04:10:18.120Z,11.56
2022-10-23T04:12:45.153Z,11.54
2022-10-23T04:15:12.130Z,11.54
2022-10-23T04:17:38.794Z,11.54
2022-10-23T04:20:05.871Z,11.54
2022-10-23T04:22:32.382Z,11.53
2022-10-23T04:24:58.855Z,11.52
2022-10-23T04:27:25.462Z,11.51
2022-10-23T04:29:54.355Z,11.49
2022-10-23T04:32:23.605Z,11.47
2022-10-23T04:34:50.208Z,11.47
2022-10-23T04:37:17.155Z,11.48
2022-10-23T04:39:43.608Z,11.48
2022-10-23T04:42:10.104Z,11.47
2022-10-23T04:44:38.838Z,11.47
2022-10-23T04:47:05.408Z,11.46
2022-10-23T04:49:31.914Z,11.47
2022-10-23T04:51:58.488Z,11.46
2022-10-23T04:54:25.112Z,11.47
2022-10-23T04:56:51.800Z,11.46
2022-10-23T04:59:18.315Z,11.45
2022-10-23T05:01:45.381Z,11.46
2022-10-23T05:04:12.076Z,11.46
2022-10-23T05:06:38.487Z,11.47
2022-10-23T05:09:04.982Z,11.46
2022-10-23T05:11:33.170Z,11.46
2022-10-23T05:47:13.899Z,11.54
2022-10-23T05:49:40.434Z,11.56
2022-10-23T05:52:07.112Z,11.57
2022-10-23T05:54:33.625Z,11.60
2022-10-23T05:57:00.303Z,11.62
2022-10-23T05:59:26.998Z,11.62
2022-10-23T06:01:53.680Z,11.64
2022-10-23T06:04:20.366Z,11.66
2022-10-23T06:06:47.873Z,11.68
2022-10-23T06:09:15.657Z,11.69
2022-10-23T06:11:42.723Z,11.69
2022-10-23T06:14:09.218Z,11.70
2022-10-23T06:16:36.374Z,11.70
2022-10-23T06:19:03.316Z,11.71
2022-10-23T06:21:29.776Z,11.72
2022-10-23T06:23:56.712Z,11.72
2022-10-23T06:26:23.465Z,11.72
2022-10-23T06:28:50.167Z,11.73
2022-10-23T06:31:19.161Z,11.71
2022-10-23T06:33:47.255Z,11.73
2022-10-23T06:36:13.992Z,11.75
2022-10-23T06:38:40.838Z,11.81
2022-10-23T06:41:18.428Z,11.86
2022-10-23T06:43:47.528Z,11.92
2022-10-23T06:46:14.486Z,12.01
2022-10-23T06:48:44.984Z,12.10
2022-10-23T06:51:14.951Z,12.18
2022-10-23T06:53:41.926Z,12.26
2022-10-23T06:56:12.548Z,12.37
2022-10-23T06:58:39.774Z,12.44
2022-10-23T07:01:09.513Z,12.53
2022-10-23T07:03:36.440Z,12.61
2022-10-23T07:06:04.887Z,12.68
2022-10-23T07:08:32.336Z,12.75
2022-10-23T07:11:05.940Z,12.81
2022-10-23T07:13:34.499Z,12.87
2022-10-23T07:16:10.497Z,12.95
2022-10-23T07:18:37.199Z,13.04
2022-10-23T07:21:04.016Z,13.09
2022-10-23T07:23:30.500Z,13.15
2022-10-23T07:26:03.366Z,13.23
2022-10-23T07:28:30.076Z,13.29
2022-10-23T07:30:58.808Z,13.34
2022-10-23T07:33:25.629Z,13.42
2022-10-23T07:35:52.218Z,13.48
2022-10-23T07:38:19.026Z,13.52
2022-10-23T07:40:45.862Z,13.57
2022-10-23T07:43:12.541Z,13.65
2022-10-23T07:45:39.487Z,13.70
2022-10-23T07:48:06.099Z,13.76
2022-10-23T07:50:32.764Z,13.82
2022-10-23T07:52:59.429Z,13.89
2022-10-23T07:55:26.193Z,13.94
2022-10-23T07:57:52.933Z,14.00
2022-10-23T08:00:20.306Z,14.03
2022-10-23T08:02:46.983Z,14.08
2022-10-23T08:05:13.954Z,14.12
2022-10-23T08:07:43.912Z,14.17
2022-10-23T08:10:10.852Z,14.22
2022-10-23T08:12:38.719Z,14.28
2022-10-23T08:15:05.745Z,14.33
2022-10-23T08:17:32.697Z,14.37
2022-10-23T08:19:59.563Z,14.42
2022-10-23T08:22:26.121Z,14.46
2022-10-23T08:24:55.070Z,14.53
2022-10-23T08:27:21.784Z,14.59
2022-10-23T08:29:48.596Z,14.64
2022-10-23T08:32:15.524Z,14.67
2022-10-23T08:34:42.213Z,14.72
2022-10-23T08:37:08.910Z,14.76
2022-10-23T08:39:36.752Z,14.80
2022-10-23T08:42:03.682Z,14.84
2022-10-23T08:44:36.693Z,14.88
2022-10-23T08:47:19.000Z,14.92
2022-10-23T08:50:03.745Z,14.96
2022-10-23T08:52:47.878Z,14.99
2022-10-23T08:55:26.441Z,15.04
2022-10-23T08:58:08.478Z,15.06
2022-10-23T09:00:35.133Z,15.11
2022-10-23T09:03:05.454Z,15.15
2022-10-23T09:05:52.634Z,15.20
2022-10-23T09:08:33.852Z,15.27
2022-10-23T09:11:06.181Z,15.31
2022-10-23T09:13:50.640Z,15.36
2022-10-23T09:16:35.847Z,15.41
2022-10-23T09:19:02.601Z,15.46
2022-10-23T09:21:30.138Z,15.50
2022-10-23T09:23:58.331Z,15.54
2022-10-23T09:26:26.478Z,15.60
2022-10-23T09:29:02.396Z,15.64
2022-10-23T09:31:28.879Z,15.67
2022-10-23T09:34:01.388Z,15.70
2022-10-23T09:36:29.785Z,15.73
2022-10-23T09:39:00.004Z,15.76
2022-10-23T09:41:29.473Z,15.78
2022-10-23T09:44:08.120Z,15.80
2022-10-23T09:49:19.981Z,15.81
2022-10-23T09:51:54.693Z,15.82
2022-10-23T09:54:24.207Z,15.82
2022-10-23T09:56:53.910Z,15.83
2022-10-23T09:59:31.120Z,15.82
2022-10-23T10:02:01.491Z,15.82
2022-10-23T10:04:36.238Z,15.86
2022-10-23T10:07:05.965Z,15.88
2022-10-23T10:09:33.394Z,15.93
2022-10-23T10:12:19.643Z,15.97
2022-10-23T10:14:55.349Z,16.01
2022-10-23T10:17:35.065Z,16.05
2022-10-23T10:20:14.089Z,16.06
2022-10-23T10:22:54.363Z,16.10
2022-10-23T10:25:31.940Z,16.14
2022-10-23T10:28:31.753Z,16.17
2022-10-23T10:31:24.015Z,16.21
2022-10-23T10:33:59.749Z,16.24
2022-10-23T10:36:49.295Z,16.26
2022-10-23T10:39:32.151Z,16.31
2022-10-23T10:42:28.077Z,16.34
2022-10-23T10:45:10.667Z,16.36
2022-10-23T10:47:47.696Z,16.38
2022-10-23T10:50:20.070Z,16.44
2022-10-23T10:52:59.946Z,16.44
2022-10-23T10:55:38.400Z,16.46
2022-10-23T10:58:20.194Z,16.50
2022-10-23T11:00:50.767Z,16.51
2022-10-23T11:03:40.135Z,16.56
2022-10-23T11:06:15.019Z,16.58
2022-10-23T11:08:57.644Z,16.59
2022-10-23T11:11:34.590Z,16.63
2022-10-23T11:14:02.198Z,16.66
2022-10-23T11:16:38.144Z,16.69
2022-10-23T11:19:14.260Z,16.74
2022-10-23T11:21:44.768Z,16.76
2022-10-23T11:24:36.036Z,16.81
2022-10-23T11:27:08.438Z,16.83
2022-10-23T11:29:47.197Z,16.85
2022-10-23T11:32:22.491Z,16.91
2022-10-23T11:35:26.043Z,16.95
2022-10-23T11:38:15.110Z,17.00
2022-10-23T11:40:52.788Z,17.06
2022-10-23T11:43:31.212Z,17.10
2022-10-23T11:45:58.207Z,17.16
2022-10-23T11:48:43.861Z,17.25
2022-10-23T11:51:33.771Z,17.33
2022-10-23T11:54:07.698Z,17.39
2022-10-23T11:56:34.647Z,17.45
2022-10-23T11:59:22.343Z,17.52
2022-10-23T12:01:51.860Z,17.55
2022-10-23T12:04:24.102Z,17.60
2022-10-23T12:06:56.388Z,17.65
2022-10-23T12:09:40.900Z,17.70
2022-10-23T12:12:07.435Z,17.76
2022-10-23T12:14:41.033Z,17.81
2022-10-23T12:17:27.371Z,17.85
2022-10-23T12:19:55.578Z,17.90
2022-10-23T12:22:31.250Z,17.94
2022-10-23T12:24:58.826Z,17.96
2022-10-23T12:27:33.625Z,17.99
2022-10-23T12:30:40.147Z,18.00
2022-10-23T12:33:19.326Z,18.03
2022-10-23T12:36:17.197Z,18.08
2022-10-23T12:38:46.559Z,18.10
2022-10-23T13:06:04.644Z,18.39
2022-10-23T13:08:36.950Z,18.41
2022-10-23T13:11:05.288Z,18.45
2022-10-23T13:13:32.297Z,18.44
2022-10-23T13:15:59.211Z,18.47
2022-10-23T13:18:25.835Z,18.50
2022-10-23T13:20:52.479Z,18.54
2022-10-23T13:23:22.131Z,18.51
2022-10-23T13:26:03.147Z,18.55
2022-10-23T13:28:34.066Z,18.54
2022-10-23T13:31:08.315Z,18.58
2022-10-23T13:33:42.161Z,18.59
2022-10-23T13:36:13.620Z,18.62
2022-10-23T13:38:46.592Z,18.63
2022-10-23T13:41:17.262Z,18.65
2022-10-23T13:43:45.998Z,18.67
2022-10-23T13:46:17.639Z,18.70
2022-10-23T13:48:44.803Z,18.71
2022-10-23T13:51:16.407Z,18.74
2022-10-23T13:53:43.083Z,18.76
2022-10-23T13:56:14.531Z,18.79
2022-10-23T13:58:45.435Z,18.80
2022-10-23T14:01:24.947Z,18.86
2022-10-23T14:03:55.150Z,18.84
2022-10-23T14:06:24.976Z,18.87
2022-10-23T14:08:52.222Z,18.87
2022-10-23T14:11:23.802Z,18.87
2022-10-23T14:13:52.594Z,18.85
2022-10-23T14:16:24.857Z,18.87
2022-10-23T14:18:51.425Z,18.88
2022-10-23T14:21:20.381Z,18.85
2022-10-23T14:23:49.983Z,18.87
2022-10-23T14:26:20.005Z,18.88
2022-10-23T14:28:46.811Z,18.89
2022-10-23T14:31:16.619Z,18.90
2022-10-23T14:33:45.188Z,18.94
2022-10-23T14:36:12.556Z,18.97
2022-10-23T14:38:39.401Z,18.97
2022-10-23T14:41:14.528Z,19.01
2022-10-23T14:43:44.176Z,19.04
2022-10-23T14:46:17.162Z,19.05
2022-10-23T14:48:46.244Z,19.04
2022-10-23T14:51:19.197Z,19.01
2022-10-23T14:53:46.406Z,19.00
2022-10-23T15:05:20.434Z,18.98
2022-10-23T15:07:47.112Z,18.98
2022-10-23T15:10:14.012Z,18.98
2022-10-23T15:12:40.930Z,18.97
2022-10-23T15:15:08.656Z,18.97
2022-10-23T15:17:39.173Z,18.93
2022-10-23T15:20:06.542Z,18.95
2022-10-23T15:22:33.264Z,18.90
2022-10-23T15:25:00.196Z,18.88
2022-10-23T15:27:26.862Z,18.86
2022-10-23T15:29:53.518Z,18.82
2022-10-23T15:32:20.312Z,18.79
2022-10-23T15:34:49.695Z,18.75
2022-10-23T15:37:16.750Z,18.73
2022-10-23T15:39:47.322Z,18.72
2022-10-23T15:42:14.245Z,18.69
2022-10-23T15:44:41.398Z,18.66
2022-10-23T15:47:09.156Z,18.63
2022-10-23T15:49:36.023Z,18.59
2022-10-23T15:52:04.917Z,18.60
2022-10-23T15:54:32.979Z,18.57
2022-10-23T15:57:00.627Z,18.55
2022-10-23T15:59:28.544Z,18.55
2022-10-23T16:01:56.803Z,18.54
2022-10-23T16:04:26.061Z,18.52
2022-10-23T16:06:52.811Z,18.51
2022-10-23T16:09:19.342Z,18.49
2022-10-23T16:11:45.916Z,18.48
2022-10-23T16:14:15.263Z,18.45
2022-10-23T16:16:43.712Z,18.45
2022-10-23T16:19:11.244Z,18.44
2022-10-23T16:21:38.023Z,18.42
2022-10-23T16:24:07.334Z,18.39
2022-10-23T16:26:35.131Z,18.38
2022-10-23T16:29:08.518Z,18.39
2022-10-23T16:31:35.702Z,18.39
2022-10-23T16:34:04.895Z,18.37
2022-10-23T16:36:33.649Z,18.36
2022-10-23T16:39:02.700Z,18.35
2022-10-23T16:41:29.250Z,18.35
2022-10-23T16:43:55.940Z,18.35
2022-10-23T16:46:22.902Z,18.32
2022-10-23T16:48:52.170Z,18.30
2022-10-23T16:51:21.726Z,18.30
2022-10-23T16:53:49.132Z,18.31
2022-10-23T16:56:19.698Z,18.27
2022-10-23T16:58:46.912Z,18.28
2022-10-23T17:01:25.470Z,18.27
2022-10-23T17:03:53.453Z,18.26
2022-10-23T17:06:26.021Z,18.27
2022-10-23T17:08:52.747Z,18.25
2022-10-23T17:11:25.405Z,18.24
2022-10-23T17:14:01.914Z,18.24
2022-10-23T17:16:34.800Z,18.25
2022-10-23T17:19:08.368Z,18.23
2022-10-23T17:21:40.521Z,18.18
2022-10-23T17:24:08.533Z,18.16
2022-10-23T17:26:36.191Z,18.16
2022-10-23T17:29:05.173Z,18.17
2022-10-23T17:31:35.194Z,18.14
2022-10-23T17:34:06.461Z,18.15
2022-10-23T17:36:36.889Z,18.14
2022-10-23T17:39:08.447Z,18.14
2022-10-23T17:41:39.291Z,18.11
2022-10-23T17:44:08.249Z,18.12
2022-10-23T17:46:37.504Z,18.12
2022-10-23T17:49:05.485Z,18.11
2022-10-23T17:51:34.191Z,18.11
2022-10-23T17:54:04.949Z,18.12
2022-10-23T17:56:34.502Z,18.12
2022-10-23T17:59:07.491Z,18.11
2022-10-23T18:01:34.497Z,18.10
2022-10-23T18:04:04.335Z,18.13
2022-10-23T18:06:35.516Z,18.13
2022-10-23T18:09:04.120Z,18.12
2022-10-23T18:11:33.820Z,18.12
2022-10-23T18:14:01.445Z,18.12
2022-10-23T18:16:31.113Z,18.13
2022-10-23T18:19:02.520Z,18.13
2022-10-23T18:21:29.305Z,18.15
2022-10-23T18:23:56.321Z,18.16
2022-10-23T18:26:26.077Z,18.14
2022-10-23T18:28:58.908Z,18.17
2022-10-23T18:31:29.976Z,18.19
2022-10-23T18:34:03.329Z,18.19
2022-10-23T19:03:41.276Z,18.33
2022-10-23T19:06:08.621Z,18.34
2022-10-23T19:08:41.012Z,18.32
2022-10-23T19:11:09.898Z,18.31
2022-10-23T19:13:39.120Z,18.33
2022-10-23T19:16:18.133Z,18.32
2022-10-23T19:18:50.647Z,18.33
2022-10-23T19:21:22.631Z,18.28
2022-10-23T19:23:49.827Z,18.27
2022-10-23T19:26:17.233Z,18.25
2022-10-23T19:28:49.234Z,18.25
2022-10-23T19:31:18.951Z,18.10
2022-10-23T19:33:47.852Z,18.08
2022-10-23T19:36:23.401Z,18.08
2022-10-23T19:38:50.485Z,18.07
2022-10-23T19:41:18.425Z,18.04
2022-10-23T19:43:47.073Z,18.05
2022-10-23T19:46:17.075Z,18.03
2022-10-23T19:48:45.295Z,17.96
2022-10-23T19:51:15.704Z,17.91
2022-10-23T19:53:43.042Z,17.92
2022-10-23T19:56:14.197Z,17.92
2022-10-23T19:58:41.238Z,17.85
2022-10-23T20:01:15.784Z,17.83
2022-10-23T20:12:47.434Z,17.51
2022-10-23T20:15:23.492Z,17.42
2022-10-23T20:17:50.063Z,17.34
2022-10-23T20:20:16.753Z,17.25
2022-10-23T20:22:44.183Z,17.17
2022-10-23T20:25:11.116Z,17.10
2022-10-23T20:30:10.068Z,16.98
2022-10-23T20:32:36.794Z,16.92
2022-10-23T20:35:03.846Z,16.86
2022-10-23T20:37:30.545Z,16.79
2022-10-23T20:39:57.195Z,16.71
2022-10-23T20:42:23.723Z,16.64
2022-10-23T20:44:50.413Z,16.58
2022-10-23T20:47:17.016Z,16.50
2022-10-23T20:49:43.765Z,16.45
2022-10-23T20:52:10.381Z,16.39
2022-10-23T20:54:38.214Z,16.34
2022-10-23T20:57:05.060Z,16.27
2022-10-23T20:59:31.866Z,16.23
2022-10-23T21:01:58.709Z,16.19
2022-10-23T21:04:28.049Z,16.15
2022-10-23T21:07:12.825Z,16.11
2022-10-23T21:09:40.128Z,16.07
2022-10-23T21:12:08.361Z,16.03
2022-10-23T21:14:35.320Z,16.00
2022-10-23T21:17:01.973Z,15.95
2022-10-23T21:19:28.503Z,15.92
2022-10-23T21:21:55.406Z,15.90
2022-10-23T21:24:24.691Z,15.90
2022-10-23T21:26:51.437Z,15.88
2022-10-23T21:29:19.479Z,15.86
2022-10-23T21:31:58.711Z,15.82
2022-10-23T21:34:26.171Z,15.78
2022-10-23T21:37:12.337Z,15.74
2022-10-23T21:39:40.236Z,15.70
2022-10-23T21:42:06.943Z,15.68
2022-10-23T21:44:33.699Z,15.68
2022-10-23T21:47:00.489Z,15.66
2022-10-23T21:49:27.171Z,15.66
2022-10-23T21:51:55.146Z,15.63
2022-10-23T21:54:22.195Z,15.63
2022-10-23T21:56:51.637Z,15.62
2022-10-23T21:59:21.106Z,15.59
2022-10-23T22:01:49.111Z,15.58
2022-10-23T22:04:17.678Z,15.56
2022-10-23T22:06:45.328Z,15.53
2022-10-23T22:09:14.840Z,15.51
2022-10-23T22:11:41.870Z,15.53
2022-10-23T22:14:09.094Z,15.52
2022-10-23T22:16:35.644Z,15.52
2022-10-23T22:19:02.215Z,15.53
2022-10-23T22:21:30.643Z,15.53
2022-10-23T22:23:59.895Z,15.51
2022-10-23T22:26:29.195Z,15.51
2022-10-23T22:28:58.048Z,15.51
2022-10-23T22:31:27.901Z,15.50
2022-10-23T22:33:57.337Z,15.49
2022-10-23T22:36:24.627Z,15.47
2022-10-23T22:38:51.980Z,15.45
2022-10-23T22:41:19.514Z,15.43
2022-10-23T22:43:46.167Z,15.42
2022-10-23T22:46:15.637Z,15.40
2022-10-23T22:48:43.882Z,15.40
2022-10-23T22:51:17.265Z,15.39
2022-10-23T22:53:44.724Z,15.38
2022-10-23T22:56:15.004Z,15.37
2022-10-23T22:58:42.045Z,15.36
2022-10-23T23:01:14.085Z,15.34
2022-10-23T23:03:42.607Z,15.32
2022-10-23T23:06:10.267Z,15.34
2022-10-23T23:08:38.595Z,15.34
2022-10-23T23:11:08.138Z,15.32
2022-10-23T23:13:35.047Z,15.33
2022-10-23T23:16:04.616Z,15.34
2022-10-23T23:18:32.024Z,15.34
2022-10-23T23:21:06.873Z,15.34
2022-10-23T23:23:33.369Z,15.32
2022-10-23T23:25:59.983Z,15.31
2022-10-23T23:28:26.479Z,15.28
2022-10-23T23:31:03.717Z,15.26
2022-10-23T23:33:30.479Z,15.24
2022-10-23T23:35:57.111Z,15.21
2022-10-23T23:38:23.779Z,15.20
2022-10-23T23:40:53.796Z,15.17
2022-10-23T23:43:20.709Z,15.14
2022-10-23T23:45:47.632Z,15.14
2022-10-23T23:48:14.351Z,15.14
2022-10-23T23:50:41.327Z,15.13
2022-10-23T23:53:08.165Z,15.13
2022-10-23T23:55:35.128Z,15.15
2022-10-23T23:58:02.117Z,15.17
